sensor_id;sensor_type;location;lat;lon;timestamp;P1;durP1;ratioP1;P2;durP2;ratioP2
4084;SDS011;2057;50.858;6.572;2023-12-22T02:51:32;17.67;;;3.35;;
4084;SDS011;2057;50.858;6.572;2023-12-22T02:53:59;25.52;;;4.78;;
4084;SDS011;2057;50.858;6.572;2023-12-22T02:56:24;19.17;;;3.83;;
4084;SDS011;2057;50.858;6.572;2023-12-22T02:58:52;25.20;;;4.40;;
4084;SDS011;2057;50.858;6.572;2023-12-22T03:06:28;16.98;;;5.05;;
4084;SDS011;2057;50.858;6.572;2023-12-22T04:34:13;16.58;;;4.10;;
4084;SDS011;2057;50.858;6.572;2023-12-22T04:36:39;27.35;;;3.75;;
4084;SDS011;2057;50.858;6.572;2023-12-22T04:39:05;25.77;;;3.60;;
4084;SDS011;2057;50.858;6.572;2023-12-22T04:41:30;15.67;;;3.30;;
4084;SDS011;2057;50.858;6.572;2023-12-22T04:43:55;18.07;;;4.83;;
4084;SDS011;2057;50.858;6.572;2023-12-22T04:46:21;34.37;;;4.60;;
4084;SDS011;2057;50.858;6.572;2023-12-22T04:48:46;32.10;;;4.40;;
4084;SDS011;2057;50.858;6.572;2023-12-22T04:51:11;26.50;;;3.40;;
4084;SDS011;2057;50.858;6.572;2023-12-22T04:53:37;14.73;;;3.60;;
4084;SDS011;2057;50.858;6.572;2023-12-22T04:56:02;19.73;;;4.43;;
4084;SDS011;2057;50.858;6.572;2023-12-22T04:58:28;15.60;;;4.40;;
4084;SDS011;2057;50.858;6.572;2023-12-22T05:00:53;21.20;;;4.83;;
4084;SDS011;2057;50.858;6.572;2023-12-22T05:03:19;21.20;;;3.73;;
4084;SDS011;2057;50.858;6.572;2023-12-22T05:05:44;11.67;;;4.00;;
4084;SDS011;2057;50.858;6.572;2023-12-22T05:08:09;17.33;;;4.23;;
4084;SDS011;2057;50.858;6.572;2023-12-22T05:10:35;20.80;;;4.50;;
4084;SDS011;2057;50.858;6.572;2023-12-22T05:13:00;30.30;;;4.97;;
4084;SDS011;2057;50.858;6.572;2023-12-22T05:15:25;24.20;;;4.10;;
4084;SDS011;2057;50.858;6.572;2023-12-22T05:17:53;26.33;;;3.83;;
4084;SDS011;2057;50.858;6.572;2023-12-22T05:20:19;28.67;;;5.63;;
4084;SDS011;2057;50.858;6.572;2023-12-22T05:22:44;36.87;;;5.67;;
4084;SDS011;2057;50.858;6.572;2023-12-22T05:25:09;30.20;;;4.60;;
4084;SDS011;2057;50.858;6.572;2023-12-22T05:27:40;18.50;;;4.20;;
4084;SDS011;2057;50.858;6.572;2023-12-22T05:30:08;20.98;;;4.47;;
4084;SDS011;2057;50.858;6.572;2023-12-22T05:53:18;21.23;;;4.82;;
4084;SDS011;2057;50.858;6.572;2023-12-22T06:44:42;21.03;;;3.93;;
4084;SDS011;2057;50.858;6.572;2023-12-22T06:47:08;18.85;;;3.40;;
4084;SDS011;2057;50.858;6.572;2023-12-22T06:49:34;16.07;;;4.80;;
4084;SDS011;2057;50.858;6.572;2023-12-22T06:51:59;29.93;;;4.03;;
4084;SDS011;2057;50.858;6.572;2023-12-22T07:22:51;79.10;;;8.98;;
4084;SDS011;2057;50.858;6.572;2023-12-22T07:25:19;41.70;;;7.78;;
4084;SDS011;2057;50.858;6.572;2023-12-22T07:27:44;26.03;;;5.13;;
4084;SDS011;2057;50.858;6.572;2023-12-22T07:30:13;54.38;;;9.07;;
4084;SDS011;2057;50.858;6.572;2023-12-22T07:32:41;58.90;;;10.35;;
4084;SDS011;2057;50.858;6.572;2023-12-22T07:35:08;56.88;;;7.60;;
4084;SDS011;2057;50.858;6.572;2023-12-22T07:37:35;53.40;;;8.63;;
4084;SDS011;2057;50.858;6.572;2023-12-22T07:40:00;61.55;;;9.00;;
4084;SDS011;2057;50.858;6.572;2023-12-22T07:42:26;43.13;;;6.90;;
4084;SDS011;2057;50.858;6.572;2023-12-22T07:44:51;38.70;;;7.57;;
4084;SDS011;2057;50.858;6.572;2023-12-22T07:47:16;57.70;;;8.20;;
4084;SDS011;2057;50.858;6.572;2023-12-22T07:49:42;48.83;;;8.37;;
4084;SDS011;2057;50.858;6.572;2023-12-22T07:52:07;59.17;;;9.67;;
4084;SDS011;2057;50.858;6.572;2023-12-22T07:54:32;33.93;;;7.47;;
4084;SDS011;2057;50.858;6.572;2023-12-22T07:56:58;30.97;;;7.10;;
4084;SDS011;2057;50.858;6.572;2023-12-22T07:59:23;41.67;;;7.40;;
4084;SDS011;2057;50.858;6.572;2023-12-22T08:01:49;37.03;;;7.63;;
4084;SDS011;2057;50.858;6.572;2023-12-22T08:04:15;36.93;;;7.10;;
4084;SDS011;2057;50.858;6.572;2023-12-22T08:06:40;35.17;;;8.17;;
4084;SDS011;2057;50.858;6.572;2023-12-22T08:09:05;40.90;;;6.97;;
4084;SDS011;2057;50.858;6.572;2023-12-22T08:11:31;49.27;;;7.30;;
4084;SDS011;2057;50.858;6.572;2023-12-22T08:13:59;54.97;;;9.50;;
4084;SDS011;2057;50.858;6.572;2023-12-22T08:16:28;30.02;;;6.90;;
4084;SDS011;2057;50.858;6.572;2023-12-22T08:18:53;33.13;;;7.63;;
4084;SDS011;2057;50.858;6.572;2023-12-22T08:21:18;51.93;;;7.40;;
4084;SDS011;2057;50.858;6.572;2023-12-22T08:23:46;36.60;;;6.55;;
4084;SDS011;2057;50.858;6.572;2023-12-22T08:26:11;28.00;;;6.97;;
4084;SDS011;2057;50.858;6.572;2023-12-22T08:28:39;34.30;;;6.05;;
4084;SDS011;2057;50.858;6.572;2023-12-22T08:31:05;30.60;;;5.90;;
4084;SDS011;2057;50.858;6.572;2023-12-22T08:33:30;51.60;;;7.60;;
4084;SDS011;2057;50.858;6.572;2023-12-22T08:35:56;46.40;;;7.93;;
4084;SDS011;2057;50.858;6.572;2023-12-22T08:38:21;37.37;;;9.00;;
4084;SDS011;2057;50.858;6.572;2023-12-22T08:40:47;55.23;;;8.80;;
4084;SDS011;2057;50.858;6.572;2023-12-22T08:50:57;39.90;;;6.40;;
4084;SDS011;2057;50.858;6.572;2023-12-22T09:14:02;35.15;;;5.55;;
4084;SDS011;2057;50.858;6.572;2023-12-22T09:16:30;22.58;;;4.55;;
4084;SDS011;2057;50.858;6.572;2023-12-22T13:14:49;2.63;;;1.43;;
4084;SDS011;2057;50.858;6.572;2023-12-22T13:17:15;2.60;;;1.67;;
4084;SDS011;2057;50.858;6.572;2023-12-22T13:19:40;12.60;;;3.50;;
4084;SDS011;2057;50.858;6.572;2023-12-22T13:22:06;8.97;;;2.23;;
4084;SDS011;2057;50.858;6.572;2023-12-22T13:32:19;13.73;;;3.33;;
4084;SDS011;2057;50.858;6.572;2023-12-22T13:45:05;8.23;;;2.97;;
4084;SDS011;2057;50.858;6.572;2023-12-22T13:47:39;9.33;;;3.10;;
4084;SDS011;2057;50.858;6.572;2023-12-22T13:50:12;9.13;;;3.33;;
4084;SDS011;2057;50.858;6.572;2023-12-22T13:52:39;13.27;;;3.00;;
4084;SDS011;2057;50.858;6.572;2023-12-22T13:55:14;12.73;;;2.63;;
4084;SDS011;2057;50.858;6.572;2023-12-22T13:57:41;12.37;;;3.20;;
4084;SDS011;2057;50.858;6.572;2023-12-22T14:02:47;8.60;;;3.40;;
4084;SDS011;2057;50.858;6.572;2023-12-22T14:05:16;9.70;;;3.07;;
4084;SDS011;2057;50.858;6.572;2023-12-22T14:07:45;6.50;;;2.80;;
4084;SDS011;2057;50.858;6.572;2023-12-22T14:10:11;14.07;;;3.23;;
4084;SDS011;2057;50.858;6.572;2023-12-22T14:12:37;9.40;;;2.60;;
4084;SDS011;2057;50.858;6.572;2023-12-22T14:15:07;6.33;;;2.97;;
4084;SDS011;2057;50.858;6.572;2023-12-22T14:17:33;10.10;;;2.77;;
4084;SDS011;2057;50.858;6.572;2023-12-22T14:19:59;10.27;;;3.07;;
4084;SDS011;2057;50.858;6.572;2023-12-22T14:22:25;11.40;;;2.90;;
4084;SDS011;2057;50.858;6.572;2023-12-22T14:24:51;13.23;;;3.43;;
4084;SDS011;2057;50.858;6.572;2023-12-22T14:27:16;10.90;;;3.57;;
4084;SDS011;2057;50.858;6.572;2023-12-22T14:29:43;11.93;;;4.43;;
4084;SDS011;2057;50.858;6.572;2023-12-22T14:32:09;6.17;;;2.63;;
4084;SDS011;2057;50.858;6.572;2023-12-22T14:34:36;5.17;;;1.50;;
4084;SDS011;2057;50.858;6.572;2023-12-22T14:37:03;7.23;;;1.80;;
4084;SDS011;2057;50.858;6.572;2023-12-22T14:39:29;9.73;;;2.90;;
4084;SDS011;2057;50.858;6.572;2023-12-22T14:41:55;12.07;;;2.20;;
4084;SDS011;2057;50.858;6.572;2023-12-22T14:44:20;14.53;;;2.47;;
4084;SDS011;2057;50.858;6.572;2023-12-22T14:46:46;10.77;;;3.30;;
4084;SDS011;2057;50.858;6.572;2023-12-22T14:49:11;11.43;;;2.87;;
4084;SDS011;2057;50.858;6.572;2023-12-22T14:51:37;12.13;;;2.60;;
4084;SDS011;2057;50.858;6.572;2023-12-22T14:54:06;7.50;;;2.10;;
4084;SDS011;2057;50.858;6.572;2023-12-22T14:56:33;7.13;;;2.30;;
4084;SDS011;2057;50.858;6.572;2023-12-22T14:58:59;10.90;;;3.43;;
4084;SDS011;2057;50.858;6.572;2023-12-22T15:01:25;9.77;;;2.50;;
4084;SDS011;2057;50.858;6.572;2023-12-22T15:03:50;7.20;;;1.90;;
4084;SDS011;2057;50.858;6.572;2023-12-22T15:06:16;7.10;;;1.77;;
4084;SDS011;2057;50.858;6.572;2023-12-22T15:08:41;14.00;;;2.60;;
4084;SDS011;2057;50.858;6.572;2023-12-22T15:11:09;10.40;;;3.23;;
4084;SDS011;2057;50.858;6.572;2023-12-22T15:13:34;8.20;;;1.97;;
4084;SDS011;2057;50.858;6.572;2023-12-22T15:16:06;9.23;;;3.00;;
4084;SDS011;2057;50.858;6.572;2023-12-22T15:18:32;21.57;;;3.00;;
4084;SDS011;2057;50.858;6.572;2023-12-22T15:21:00;7.10;;;2.63;;
4084;SDS011;2057;50.858;6.572;2023-12-22T15:23:25;11.90;;;2.80;;
4084;SDS011;2057;50.858;6.572;2023-12-22T15:25:51;10.03;;;2.70;;
4084;SDS011;2057;50.858;6.572;2023-12-22T15:28:17;17.17;;;3.93;;
4084;SDS011;2057;50.858;6.572;2023-12-22T15:30:42;9.37;;;3.33;;
4084;SDS011;2057;50.858;6.572;2023-12-22T15:33:10;7.67;;;2.30;;
4084;SDS011;2057;50.858;6.572;2023-12-22T15:35:35;10.70;;;3.47;;
4084;SDS011;2057;50.858;6.572;2023-12-22T15:38:00;13.17;;;3.17;;
4084;SDS011;2057;50.858;6.572;2023-12-22T15:40:26;5.23;;;2.17;;
4084;SDS011;2057;50.858;6.572;2023-12-22T15:42:51;6.50;;;2.33;;
4084;SDS011;2057;50.858;6.572;2023-12-22T15:45:16;11.90;;;2.27;;
4084;SDS011;2057;50.858;6.572;2023-12-22T15:47:41;11.53;;;2.73;;
4084;SDS011;2057;50.858;6.572;2023-12-22T15:50:07;7.13;;;2.00;;
4084;SDS011;2057;50.858;6.572;2023-12-22T15:52:35;8.30;;;3.50;;
4084;SDS011;2057;50.858;6.572;2023-12-22T15:55:00;4.07;;;2.80;;
4084;SDS011;2057;50.858;6.572;2023-12-22T15:57:26;15.23;;;3.70;;
4084;SDS011;2057;50.858;6.572;2023-12-22T15:59:51;17.60;;;3.70;;
4084;SDS011;2057;50.858;6.572;2023-12-22T16:02:16;8.27;;;2.50;;
4084;SDS011;2057;50.858;6.572;2023-12-22T16:04:42;7.70;;;2.50;;
4084;SDS011;2057;50.858;6.572;2023-12-22T16:07:08;7.60;;;2.30;;
4084;SDS011;2057;50.858;6.572;2023-12-22T16:09:34;12.83;;;2.80;;
4084;SDS011;2057;50.858;6.572;2023-12-22T16:12:00;13.97;;;3.57;;
4084;SDS011;2057;50.858;6.572;2023-12-22T16:27:20;6.60;;;2.30;;
4084;SDS011;2057;50.858;6.572;2023-12-22T16:29:45;14.00;;;2.97;;
4084;SDS011;2057;50.858;6.572;2023-12-22T16:32:12;11.37;;;2.87;;
4084;SDS011;2057;50.858;6.572;2023-12-22T16:34:41;12.83;;;3.80;;
4084;SDS011;2057;50.858;6.572;2023-12-22T16:37:06;5.50;;;2.30;;
4084;SDS011;2057;50.858;6.572;2023-12-22T16:39:32;12.23;;;2.77;;
4084;SDS011;2057;50.858;6.572;2023-12-22T16:42:00;8.90;;;2.50;;
4084;SDS011;2057;50.858;6.572;2023-12-22T16:44:28;7.43;;;2.60;;
4084;SDS011;2057;50.858;6.572;2023-12-22T16:46:53;15.53;;;2.60;;
4084;SDS011;2057;50.858;6.572;2023-12-22T16:49:19;7.23;;;3.00;;
4084;SDS011;2057;50.858;6.572;2023-12-22T16:51:44;14.57;;;2.50;;
4084;SDS011;2057;50.858;6.572;2023-12-22T16:54:09;14.90;;;3.17;;
4084;SDS011;2057;50.858;6.572;2023-12-22T16:56:35;10.60;;;2.90;;
4084;SDS011;2057;50.858;6.572;2023-12-22T16:59:01;8.50;;;2.60;;
4084;SDS011;2057;50.858;6.572;2023-12-22T17:01:26;17.80;;;3.10;;
4084;SDS011;2057;50.858;6.572;2023-12-22T17:03:53;12.90;;;4.17;;
4084;SDS011;2057;50.858;6.572;2023-12-22T17:06:18;8.47;;;2.77;;
4084;SDS011;2057;50.858;6.572;2023-12-22T17:08:43;8.63;;;2.93;;
4084;SDS011;2057;50.858;6.572;2023-12-22T17:11:09;10.73;;;3.33;;
4084;SDS011;2057;50.858;6.572;2023-12-22T17:13:35;6.07;;;2.60;;
4084;SDS011;2057;50.858;6.572;2023-12-22T17:16:00;10.73;;;3.20;;
4084;SDS011;2057;50.858;6.572;2023-12-22T17:18:28;4.90;;;3.07;;
4084;SDS011;2057;50.858;6.572;2023-12-22T17:20:54;8.27;;;3.00;;
4084;SDS011;2057;50.858;6.572;2023-12-22T17:23:19;11.53;;;2.60;;
4084;SDS011;2057;50.858;6.572;2023-12-22T17:25:44;11.70;;;3.50;;
4084;SDS011;2057;50.858;6.572;2023-12-22T17:28:10;10.07;;;2.50;;
4084;SDS011;2057;50.858;6.572;2023-12-22T17:30:37;12.20;;;2.70;;
4084;SDS011;2057;50.858;6.572;2023-12-22T17:33:03;8.47;;;2.40;;
4084;SDS011;2057;50.858;6.572;2023-12-22T17:35:28;14.80;;;3.43;;
4084;SDS011;2057;50.858;6.572;2023-12-22T17:37:53;16.90;;;2.40;;
4084;SDS011;2057;50.858;6.572;2023-12-22T17:40:19;8.23;;;2.57;;
4084;SDS011;2057;50.858;6.572;2023-12-22T17:42:44;10.40;;;2.80;;
4084;SDS011;2057;50.858;6.572;2023-12-22T17:45:09;5.53;;;2.80;;
4084;SDS011;2057;50.858;6.572;2023-12-22T17:47:35;14.50;;;3.70;;
4084;SDS011;2057;50.858;6.572;2023-12-22T17:50:00;12.00;;;3.27;;
4084;SDS011;2057;50.858;6.572;2023-12-22T17:52:25;7.80;;;2.27;;
4084;SDS011;2057;50.858;6.572;2023-12-22T17:54:51;13.60;;;4.00;;
4084;SDS011;2057;50.858;6.572;2023-12-22T17:57:16;9.30;;;3.80;;
4084;SDS011;2057;50.858;6.572;2023-12-22T17:59:42;6.20;;;1.60;;
4084;SDS011;2057;50.858;6.572;2023-12-22T18:02:08;8.03;;;2.73;;
4084;SDS011;2057;50.858;6.572;2023-12-22T18:04:35;16.27;;;2.60;;
4084;SDS011;2057;50.858;6.572;2023-12-22T18:07:01;13.73;;;3.20;;
4084;SDS011;2057;50.858;6.572;2023-12-22T18:09:28;13.33;;;2.87;;
4084;SDS011;2057;50.858;6.572;2023-12-22T18:11:53;10.90;;;2.33;;
4084;SDS011;2057;50.858;6.572;2023-12-22T18:24:40;9.97;;;2.40;;
4084;SDS011;2057;50.858;6.572;2023-12-22T18:27:05;16.10;;;2.90;;
4084;SDS011;2057;50.858;6.572;2023-12-22T18:29:31;14.13;;;2.93;;
4084;SDS011;2057;50.858;6.572;2023-12-22T18:31:56;11.63;;;2.63;;
4084;SDS011;2057;50.858;6.572;2023-12-22T18:34:21;18.83;;;2.37;;
4084;SDS011;2057;50.858;6.572;2023-12-22T18:36:47;17.93;;;2.90;;
4084;SDS011;2057;50.858;6.572;2023-12-22T18:39:12;7.57;;;2.20;;
4084;SDS011;2057;50.858;6.572;2023-12-22T18:41:38;7.40;;;2.70;;
4084;SDS011;2057;50.858;6.572;2023-12-22T18:44:03;12.70;;;2.43;;
4084;SDS011;2057;50.858;6.572;2023-12-22T18:46:29;13.60;;;3.07;;
4084;SDS011;2057;50.858;6.572;2023-12-22T18:48:54;6.63;;;1.80;;
4084;SDS011;2057;50.858;6.572;2023-12-22T18:51:20;12.70;;;3.17;;
4084;SDS011;2057;50.858;6.572;2023-12-22T18:53:48;10.90;;;2.40;;
4084;SDS011;2057;50.858;6.572;2023-12-22T18:56:18;15.87;;;2.23;;
4084;SDS011;2057;50.858;6.572;2023-12-22T18:58:45;11.93;;;2.07;;
4084;SDS011;2057;50.858;6.572;2023-12-22T19:01:10;9.73;;;2.70;;
4084;SDS011;2057;50.858;6.572;2023-12-22T19:03:36;12.33;;;2.50;;
4084;SDS011;2057;50.858;6.572;2023-12-22T19:06:02;7.57;;;2.23;;
4084;SDS011;2057;50.858;6.572;2023-12-22T19:08:28;10.33;;;2.80;;
4084;SDS011;2057;50.858;6.572;2023-12-22T19:10:53;8.23;;;2.13;;
4084;SDS011;2057;50.858;6.572;2023-12-22T19:13:19;12.27;;;2.50;;
4084;SDS011;2057;50.858;6.572;2023-12-22T19:15:44;13.13;;;2.63;;
4084;SDS011;2057;50.858;6.572;2023-12-22T19:18:09;15.57;;;2.20;;
4084;SDS011;2057;50.858;6.572;2023-12-22T19:20:35;11.60;;;1.53;;
4084;SDS011;2057;50.858;6.572;2023-12-22T19:23:00;6.83;;;2.27;;
4084;SDS011;2057;50.858;6.572;2023-12-22T19:25:25;12.93;;;3.03;;
4084;SDS011;2057;50.858;6.572;2023-12-22T19:27:51;10.67;;;2.50;;
4084;SDS011;2057;50.858;6.572;2023-12-22T19:30:16;9.63;;;2.33;;
4084;SDS011;2057;50.858;6.572;2023-12-22T19:32:42;9.93;;;2.73;;
4084;SDS011;2057;50.858;6.572;2023-12-22T19:35:09;12.53;;;3.33;;
4084;SDS011;2057;50.858;6.572;2023-12-22T19:37:38;7.60;;;1.80;;
4084;SDS011;2057;50.858;6.572;2023-12-22T19:40:04;14.23;;;2.80;;
4084;SDS011;2057;50.858;6.572;2023-12-22T19:42:30;9.10;;;1.87;;
4084;SDS011;2057;50.858;6.572;2023-12-22T19:44:56;8.07;;;1.80;;
4084;SDS011;2057;50.858;6.572;2023-12-22T19:47:21;15.93;;;3.20;;
4084;SDS011;2057;50.858;6.572;2023-12-22T19:52:20;9.27;;;3.00;;
4084;SDS011;2057;50.858;6.572;2023-12-22T19:54:45;10.10;;;1.93;;
4084;SDS011;2057;50.858;6.572;2023-12-22T19:57:10;5.10;;;1.67;;
4084;SDS011;2057;50.858;6.572;2023-12-22T19:59:36;18.93;;;2.60;;
4084;SDS011;2057;50.858;6.572;2023-12-22T20:02:01;14.03;;;3.27;;
4084;SDS011;2057;50.858;6.572;2023-12-22T20:04:27;18.70;;;2.00;;
4084;SDS011;2057;50.858;6.572;2023-12-22T20:06:52;12.20;;;2.20;;
4084;SDS011;2057;50.858;6.572;2023-12-22T20:09:17;6.07;;;1.77;;
4084;SDS011;2057;50.858;6.572;2023-12-22T20:11:43;6.70;;;2.30;;
4084;SDS011;2057;50.858;6.572;2023-12-22T20:14:09;21.73;;;2.57;;
4084;SDS011;2057;50.858;6.572;2023-12-22T20:16:35;11.67;;;2.57;;
4084;SDS011;2057;50.858;6.572;2023-12-22T20:19:03;14.37;;;2.90;;
4084;SDS011;2057;50.858;6.572;2023-12-22T20:50:00;13.83;;;2.50;;
4084;SDS011;2057;50.858;6.572;2023-12-22T20:52:25;13.13;;;1.50;;
4084;SDS011;2057;50.858;6.572;2023-12-22T20:54:50;12.00;;;3.30;;
4084;SDS011;2057;50.858;6.572;2023-12-22T20:57:16;9.77;;;1.90;;
4084;SDS011;2057;50.858;6.572;2023-12-22T20:59:41;10.00;;;2.90;;
4084;SDS011;2057;50.858;6.572;2023-12-22T21:02:06;5.93;;;2.07;;
4084;SDS011;2057;50.858;6.572;2023-12-22T21:04:35;14.77;;;2.50;;
4084;SDS011;2057;50.858;6.572;2023-12-22T21:07:01;7.17;;;2.50;;
4084;SDS011;2057;50.858;6.572;2023-12-22T21:09:28;17.37;;;3.63;;
4084;SDS011;2057;50.858;6.572;2023-12-22T21:11:54;8.23;;;2.80;;
4084;SDS011;2057;50.858;6.572;2023-12-22T21:16:54;13.53;;;2.53;;
4084;SDS011;2057;50.858;6.572;2023-12-22T21:21:55;8.20;;;2.33;;
4084;SDS011;2057;50.858;6.572;2023-12-22T21:24:23;14.53;;;2.43;;
4084;SDS011;2057;50.858;6.572;2023-12-22T21:26:48;13.80;;;2.40;;
4084;SDS011;2057;50.858;6.572;2023-12-22T21:29:14;6.47;;;1.83;;
4084;SDS011;2057;50.858;6.572;2023-12-22T21:31:43;6.90;;;2.17;;
4084;SDS011;2057;50.858;6.572;2023-12-22T21:34:09;6.67;;;1.90;;
4084;SDS011;2057;50.858;6.572;2023-12-22T21:36:34;7.80;;;2.57;;
4084;SDS011;2057;50.858;6.572;2023-12-22T21:39:02;11.47;;;2.97;;
4084;SDS011;2057;50.858;6.572;2023-12-22T21:41:28;6.70;;;2.47;;
4084;SDS011;2057;50.858;6.572;2023-12-22T21:43:53;8.80;;;2.43;;
4084;SDS011;2057;50.858;6.572;2023-12-22T21:46:18;5.93;;;2.00;;
4084;SDS011;2057;50.858;6.572;2023-12-22T21:48:44;6.90;;;2.43;;
4084;SDS011;2057;50.858;6.572;2023-12-22T21:51:09;10.47;;;2.43;;
4084;SDS011;2057;50.858;6.572;2023-12-22T22:09:08;7.57;;;2.20;;
4084;SDS011;2057;50.858;6.572;2023-12-22T22:11:40;13.43;;;2.80;;
4084;SDS011;2057;50.858;6.572;2023-12-22T22:14:05;8.10;;;2.00;;
4084;SDS011;2057;50.858;6.572;2023-12-22T22:16:31;5.10;;;1.57;;
4084;SDS011;2057;50.858;6.572;2023-12-22T22:18:57;9.43;;;2.00;;
4084;SDS011;2057;50.858;6.572;2023-12-22T22:21:22;10.27;;;1.80;;
4084;SDS011;2057;50.858;6.572;2023-12-22T22:23:48;7.23;;;1.83;;
4084;SDS011;2057;50.858;6.572;2023-12-22T22:26:15;8.00;;;2.00;;
4084;SDS011;2057;50.858;6.572;2023-12-22T22:28:41;10.97;;;2.27;;
4084;SDS011;2057;50.858;6.572;2023-12-22T22:31:06;12.67;;;2.83;;
4084;SDS011;2057;50.858;6.572;2023-12-22T22:33:35;4.00;;;0.97;;
4084;SDS011;2057;50.858;6.572;2023-12-22T22:36:01;2.57;;;1.30;;
4084;SDS011;2057;50.858;6.572;2023-12-22T22:38:26;6.80;;;2.17;;
4084;SDS011;2057;50.858;6.572;2023-12-22T22:40:51;3.80;;;1.27;;
4084;SDS011;2057;50.858;6.572;2023-12-22T22:43:19;8.33;;;2.10;;
4084;SDS011;2057;50.858;6.572;2023-12-22T22:45:45;9.77;;;1.87;;
4084;SDS011;2057;50.858;6.572;2023-12-22T22:48:10;3.60;;;1.43;;
4084;SDS011;2057;50.858;6.572;2023-12-22T22:50:36;2.03;;;1.40;;
4084;SDS011;2057;50.858;6.572;2023-12-22T22:53:01;4.90;;;1.30;;
4084;SDS011;2057;50.858;6.572;2023-12-22T22:55:31;7.97;;;2.40;;
4084;SDS011;2057;50.858;6.572;2023-12-22T22:57:56;6.10;;;1.83;;
4084;SDS011;2057;50.858;6.572;2023-12-22T23:00:22;8.47;;;1.20;;
4084;SDS011;2057;50.858;6.572;2023-12-22T23:02:54;1.10;;;0.80;;
4084;SDS011;2057;50.858;6.572;2023-12-22T23:05:20;2.60;;;1.48;;
4084;SDS011;2057;50.858;6.572;2023-12-22T23:07:45;4.00;;;1.37;;
